Blue Hill Meteorological Observatory

42° 12' 44"N, 71° 06' 53"W, Elevation 635 ft.
Eastern Time

Hourly observations for the last 72 hours

Date Time Temperature (°F) Humi-
dity

(%)
Wind
(mph)
Pressure Rain (in) Sun
(W/m2)
ET
(in)
Air Dew 6 Hour 1 Hr 3 Hr 6 Hr Day
Alt
(in)
Sea
Level

(mb)
Max Min
22 19:00 50.9 24.9 61.4 50.9 36 SW 7 G 11 30.34 1027.4 0.00 0 0.215
22 18:00 57.2 18.7 22 WSW 2 G 4 30.31 1026.5 0.00 46 0.210
22 17:00 60.2 17.8 19 WSW 6 G 16 30.31 1026.5 0.00 243 0.197
22 16:00 61.0 18.4 19 W 12 G 19 30.30 1026.2 0.00 436 0.180
22 15:00 60.4 17.9 19 W 4 G 19 30.31 1026.4 0.00 617 0.160
22 14:00 60.0 18.8 20 NW 8 G 22 30.32 1026.6 0.00 761 0.137
22 13:00 58.7 18.9 59.1 42.9 21 N 14 G 25 30.33 1027.1 0.00 860 0.113
22 12:00 57.5 20.0 23 E 15 G 21 30.34 1027.3 0.00 902 0.090
22 11:00 55.3 21.9 27 ENE 10 G 17 30.35 1027.7 0.00 889 0.069
22 10:00 53.9 22.4 29 ESE 8 G 18 30.36 1028.0 0.00 812 0.050
22 09:00 51.5 23.3 33 SE 13 G 19 30.36 1028.1 0.00 698 0.034
22 08:00 49.1 23.3 36 S 11 G 21 30.36 1028.2 0.00 529 0.023
22 07:00 42.9 25.1 42.9 35.7 49 S 10 G 16 30.35 1027.9 0.00 343 0.017
22 06:00 37.4 22.7 55 SSW 10 G 14 30.35 1027.7 0.00 134 0.014
22 05:00 35.7 22.8 59 SSE 11 G 16 30.33 1027.3 0.00 7 0.012
22 04:00 37.0 21.9 54 WSW 11 G 16 30.32 1026.8 0.00 0 0.009
22 03:00 38.3 21.8 51 W 9 G 13 30.33 1027.0 0.00 0 0.006
22 02:00 40.1 21.5 47 WNW 6 G 9 30.33 1027.0 0.00 0 0.003
22 01:00 42.0 21.1 50.9 42.0 43 WNW 9 G 12 30.33 1027.0 0.00 0 0.000
22 00:00 42.0 21.1 43 WNW 9 G 12 30.33 1027.0 0.00 0 0.000
21 23:00 45.2 21.1 38 NW 10 G 16 30.32 1026.7 0.00 0 0.213
21 22:00 46.4 22.2 38 NW 10 G 14 30.30 1026.2 0.00 0 0.208
21 21:00 48.2 21.8 35 NW 10 G 16 30.29 1025.9 0.00 0 0.203
21 20:00 49.2 21.3 33 NW 10 G 16 30.27 1025.0 0.00 0 0.198
21 19:00 50.9 22.1 59.0 50.9 32 W 8 G 14 30.25 1024.3 0.00 0 0.193
21 18:00 54.2 22.6 29 W 12 G 17 30.22 1023.2 0.00 35 0.185
21 17:00 56.3 22.7 27 WSW 7 G 20 30.20 1022.9 0.00 241 0.173
21 16:00 58.0 24.2 27 WSW 16 G 25 30.21 1022.9 0.00 429 0.156
21 15:00 58.2 25.3 28 SSW 12 G 19 30.20 1022.8 0.00 617 0.136
21 14:00 57.1 25.1 29 SW 6 G 22 30.22 1023.3 0.00 751 0.115
21 13:00 55.7 27.8 55.7 39.6 34 WSW 11 G 18 30.24 1024.1 0.00 846 0.094
21 12:00 53.1 27.5 37 W 14 G 25 30.26 1024.9 0.00 933 0.072
21 11:00 52.5 27.6 38 WSW 15 G 24 30.27 1025.2 0.00 879 0.052
21 10:00 49.9 27.7 42 W 10 G 25 30.29 1025.8 0.00 803 0.034
21 09:00 46.8 27.1 46 W 12 G 30 30.30 1026.2 0.00 682 0.020
21 08:00 44.5 28.9 54 SW 14 G 21 30.31 1026.5 0.00 517 0.011
21 07:00 39.6 29.6 39.6 32.4 67 SW 9 G 18 30.32 1026.9 0.00 332 0.006
21 06:00 33.9 27.5 77 SW 9 G 16 30.31 1026.3 0.00 135 0.005
21 05:00 32.7 26.6 78 SSW 9 G 14 30.29 1025.8 0.00 5 0.004
21 04:00 33.4 27.0 77 SSW 11 G 18 30.28 1025.5 0.00 0 0.003
21 03:00 33.3 26.9 77 SW 10 G 17 30.27 1025.3 0.00 0 0.002
21 02:00 33.7 26.9 76 WSW 9 G 16 30.26 1024.9 0.00 0 0.001
21 01:00 33.9 27.1 42.7 33.9 76 WSW 11 G 16 30.26 1024.8 0.00 0 0.000
21 00:00 34.7 27.3 74 W 9 G 15 30.26 1024.8 0.00 0 0.181
20 23:00 36.1 27.6 71 W 10 G 16 30.26 1024.8 0.00 0 0.179
20 22:00 37.9 27.9 67 W 11 G 23 30.26 1024.7 0.00 0 0.177
20 21:00 39.1 28.0 64 S 14 G 25 30.25 1024.6 0.00 0 0.174
20 20:00 40.5 27.7 60 W 18 G 28 30.23 1023.8 0.00 0 0.170
20 19:00 42.7 28.5 51.9 42.7 57 NE 19 G 29 30.20 1022.8 0.00 0 0.165
20 18:00 44.4 28.8 54 NE 18 G 29 30.16 1021.5 0.00 26 0.158
20 17:00 47.3 29.1 49 NE 19 G 32 30.14 1020.8 0.00 98 0.145
20 16:00 50.6 30.0 45 NE 16 G 34 30.10 1019.2 0.00 563 0.131
20 15:00 49.3 30.4 48 NE 15 G 26 30.07 1018.4 0.00 250 0.118
20 14:00 50.4 29.9 45 NE 15 G 27 30.05 1017.8 0.00 940 0.098
20 13:00 49.9 30.5 50.7 34.9 47 NE 12 G 30 30.06 1017.9 0.00 902 0.078
20 12:00 47.0 30.8 53 NE 22 G 30 30.03 1016.9 0.00 359 0.062
20 11:00 46.0 31.6 57 NE 17 G 30 30.02 1016.6 0.00 339 0.045
20 10:00 44.9 30.6 57 NE 22 G 31 30.00 1016.1 0.00 853 0.029
20 09:00 41.4 30.5 65 NE 20 G 35 30.00 1015.9 0.00 712 0.017
20 08:00 38.5 29.9 71 SE 17 G 32 29.98 1015.3 0.00 605 0.010
20 07:00 35.1 28.3 35.1 31.1 76 SE 16 G 34 29.96 1014.6 0.00 334 0.006
20 06:00 32.2 27.6 83 S 15 G 23 29.95 1014.4 0.00 135 0.005
20 05:00 31.2 27.2 85 S 11 G 18 29.93 1013.5 0.00 5 0.004
20 04:00 31.6 27.9 86 S 13 G 22 29.89 1012.3 0.00 0 0.003
20 03:00 32.5 28.5 85 S 14 G 25 29.88 1011.8 0.00 0 0.002
20 02:00 33.6 29.3 84 SE 16 G 25 29.87 1011.5 0.00 0 0.001
20 01:00 34.7 30.1 37.5 34.6 83 S 13 G 28 29.86 1011.3 0.01 0.01 0.00 0 0.000
20 00:00 35.4 31.1 84 S 13 G 22 29.85 1010.9 0.30 0 0.024
19 23:00 35.8 32.6 88 SSE 10 G 19 29.84 1010.6 0.01 0.30 0 0.023
19 22:00 36.1 32.9 88 S 14 G 22 29.82 1010.0 0.29 0 0.022
19 21:00 36.8 34.7 92 W 11 G 18 29.82 1009.8 0.29 0 0.022
19 20:00 37.5 35.9 94 W 11 G 18 29.80 1009.2 0.29 0 0.022

Data generated by WxSolution Version 1.9.1.2, Build 2018.04.08.